Terminal Aerodrome Forecast
Issued by NWS

Home | Current Version | Previous Version | Text Only | Print | Product List | Glossary On
Versions: 1 2 3 4 5 6 7 8 9 10 11 12 13 14 15 16 17 18 19 20 21 22 23 24
000
FTUS45 KFGZ 031100
TAFSEZ
TAF
KSEZ 031140Z 0312/0412 VRB06KT 5SM BR BKN005
      TEMPO 0312/0314 1/2SM FG OVC002
     FM031600 VRB06KT P6SM SCT020 BKN035
      TEMPO 0319/0323 4SM -SHRA SCT015 BKN025
     FM032300 25010KT 5SM -SHRA BR BKN018 BKN028
     FM040600 VRB05KT P6SM BKN015=

USA.gov is the U.S. government's official web portal to all federal, state and local government web resources and services.